createdAt,value
2018-07-16T00:00:14.111Z,94.65
2018-07-16T00:02:43.181Z,94.88
2018-07-16T00:05:13.251Z,95.51
2018-07-16T00:07:43.234Z,96.26
2018-07-16T00:12:48.096Z,95.57
2018-07-16T00:15:18.177Z,95.65
2018-07-16T00:17:47.230Z,95.86
2018-07-16T00:20:20.806Z,95.31
2018-07-16T00:25:25.614Z,93.70
2018-07-16T00:27:54.667Z,94.34
2018-07-16T00:30:23.763Z,95.26
2018-07-16T00:32:52.837Z,95.37
2018-07-16T00:35:23.942Z,94.93
2018-07-16T00:37:53.895Z,94.87
2018-07-16T00:40:23.855Z,94.57
2018-07-16T00:42:52.940Z,94.08
2018-07-16T00:45:21.992Z,94.47
2018-07-16T00:47:51.174Z,94.16
2018-07-16T00:50:20.227Z,92.86
2018-07-16T00:52:49.275Z,93.67
2018-07-16T00:57:54.105Z,93.92
2018-07-16T01:00:23.152Z,93.32
2018-07-16T01:02:52.210Z,93.64
2018-07-16T01:05:23.239Z,92.89
2018-07-16T01:07:52.298Z,93.37
2018-07-16T01:10:21.400Z,94.35
2018-07-16T01:12:50.462Z,94.66
2018-07-16T01:15:20.445Z,94.79
2018-07-16T01:25:36.746Z,92.78
2018-07-16T01:28:05.803Z,94.88
2018-07-16T01:35:46.337Z,93.06
2018-07-16T01:38:15.390Z,95.11
2018-07-16T01:45:56.000Z,92.53
2018-07-16T01:48:25.197Z,92.94
2018-07-16T01:50:54.234Z,93.76
2018-07-16T01:58:34.889Z,93.44
2018-07-16T02:01:03.942Z,93.21
2018-07-16T02:06:08.769Z,94.28
2018-07-16T02:08:37.830Z,93.83
2018-07-16T02:14:08.909Z,92.72
2018-07-16T02:16:38.095Z,92.90
2018-07-16T02:19:07.195Z,93.03
2018-07-16T02:21:36.221Z,93.57
2018-07-16T02:24:05.318Z,94.39
2018-07-16T02:29:10.965Z,95.42
2018-07-16T02:34:15.731Z,96.01
2018-07-16T02:36:44.793Z,95.97
2018-07-16T02:39:13.838Z,95.68
2018-07-16T02:41:46.389Z,94.93
2018-07-16T02:44:16.492Z,94.99
2018-07-16T02:46:45.546Z,94.46
2018-07-16T02:49:14.588Z,94.40
2018-07-16T02:51:43.641Z,95.23
2018-07-16T02:54:12.715Z,94.85
2018-07-16T02:59:17.495Z,92.21
2018-07-16T03:01:47.485Z,92.03
2018-07-16T03:06:52.254Z,91.25
2018-07-16T03:09:21.302Z,91.34
2018-07-16T03:11:50.347Z,91.83
2018-07-16T03:14:19.461Z,92.36
2018-07-16T03:16:48.561Z,92.86
2018-07-16T03:19:17.698Z,93.01
2018-07-16T03:21:46.751Z,93.16
2018-07-16T03:24:15.831Z,93.29
2018-07-16T03:29:20.601Z,92.71
2018-07-16T03:33:29.248Z,90.42
2018-07-16T03:41:09.777Z,89.93
2018-07-16T03:43:38.849Z,89.75
2018-07-16T03:48:43.610Z,90.08
2018-07-16T03:51:12.679Z,90.09
2018-07-16T03:53:41.736Z,90.60
2018-07-16T03:58:46.593Z,90.87
2018-07-16T04:01:15.653Z,90.03
2018-07-16T04:03:44.698Z,88.94
2018-07-16T04:06:14.086Z,88.71
2018-07-16T04:13:55.715Z,89.73
2018-07-16T04:16:25.723Z,92.42
2018-07-16T04:18:55.726Z,94.41
2018-07-16T04:21:24.816Z,95.39
2018-07-16T04:23:53.858Z,96.95
2018-07-16T04:26:23.839Z,97.72
2018-07-16T04:31:29.625Z,100.00
2018-07-16T04:33:58.686Z,100.00
2018-07-16T04:36:27.798Z,100.00
2018-07-16T04:38:56.822Z,100.00
2018-07-16T04:41:29.600Z,100.00
2018-07-16T04:44:01.657Z,100.00
2018-07-16T04:49:06.444Z,100.00
2018-07-16T04:54:11.307Z,100.00
2018-07-16T04:56:45.783Z,100.00
2018-07-16T05:01:50.572Z,100.00
2018-07-16T05:09:31.153Z,100.00
2018-07-16T05:12:01.122Z,100.00
2018-07-16T05:14:30.191Z,100.00
2018-07-16T05:19:35.273Z,100.00
2018-07-16T05:22:04.493Z,100.00
2018-07-16T05:24:33.534Z,100.00
2018-07-16T05:27:06.433Z,100.00
2018-07-16T05:34:55.480Z,100.00
2018-07-16T05:37:24.719Z,100.00
2018-07-16T05:39:54.685Z,100.00
2018-07-16T05:42:23.757Z,100.00
2018-07-16T05:45:00.807Z,100.00
2018-07-16T05:47:39.420Z,100.00
2018-07-16T05:50:13.775Z,100.00
2018-07-16T05:52:43.764Z,100.00
2018-07-16T05:55:12.865Z,100.00
2018-07-16T05:57:53.334Z,100.00
2018-07-16T06:03:07.165Z,100.00
2018-07-16T06:10:48.060Z,100.00
2018-07-16T06:13:18.098Z,100.00
2018-07-16T06:15:48.324Z,100.00
2018-07-16T06:18:17.875Z,100.00
2018-07-16T06:20:46.925Z,100.00
2018-07-16T06:25:51.730Z,100.00
2018-07-16T06:28:22.741Z,100.00
2018-07-16T06:30:51.822Z,100.00
2018-07-16T06:33:24.809Z,100.00
2018-07-16T06:38:33.179Z,98.54
2018-07-16T06:43:38.015Z,98.19
2018-07-16T06:48:42.786Z,96.76
2018-07-16T06:51:11.858Z,95.83
2018-07-16T06:53:41.925Z,96.73
2018-07-16T06:56:11.150Z,96.34
2018-07-16T06:58:40.178Z,94.98
2018-07-16T07:01:12.429Z,94.15
2018-07-16T07:03:42.455Z,96.34
2018-07-16T07:06:12.655Z,98.30
2018-07-16T07:08:42.341Z,98.49
2018-07-16T07:11:11.403Z,99.09
2018-07-16T07:13:41.422Z,100.00
2018-07-16T07:16:10.710Z,96.76
2018-07-16T07:21:15.544Z,92.54
2018-07-16T07:23:44.578Z,92.25
2018-07-16T07:26:15.729Z,95.36
2018-07-16T07:28:46.684Z,91.46
2018-07-16T07:31:15.709Z,94.10
2018-07-16T07:33:44.754Z,95.08
2018-07-16T07:36:13.874Z,89.45
2018-07-16T07:38:45.046Z,90.38
2018-07-16T07:41:14.391Z,90.86
2018-07-16T07:43:44.421Z,85.48
2018-07-16T07:46:14.475Z,85.74
2018-07-16T07:53:55.260Z,79.64
2018-07-16T07:59:00.097Z,81.21
2018-07-16T08:01:29.165Z,79.88
2018-07-16T08:03:59.246Z,82.17
2018-07-16T08:09:05.138Z,81.50
2018-07-16T08:11:34.203Z,81.20
2018-07-16T08:14:03.356Z,80.33
2018-07-16T08:16:32.510Z,82.14
2018-07-16T08:19:03.543Z,80.80
2018-07-16T08:21:32.598Z,83.70
2018-07-16T08:26:40.478Z,80.82
2018-07-16T08:29:13.559Z,81.99
2018-07-16T08:31:44.599Z,79.80
2018-07-16T08:34:14.632Z,79.69
2018-07-16T08:36:43.940Z,78.89
2018-07-16T08:39:15.418Z,77.56
2018-07-16T08:41:44.581Z,77.46
2018-07-16T08:44:20.450Z,71.61
2018-07-16T08:46:57.943Z,74.15
2018-07-16T08:49:32.767Z,76.98
2018-07-16T08:54:46.207Z,74.41
2018-07-16T08:57:22.992Z,70.98
2018-07-16T08:59:56.919Z,74.44
2018-07-16T09:02:32.928Z,74.96
2018-07-16T09:05:09.284Z,71.84
2018-07-16T09:10:19.729Z,68.95
2018-07-16T09:12:53.488Z,67.09
2018-07-16T09:18:08.022Z,69.25
2018-07-16T09:20:42.941Z,64.41
2018-07-16T09:23:17.702Z,66.47
2018-07-16T09:25:52.368Z,64.97
2018-07-16T09:28:21.480Z,57.40
2018-07-16T09:33:26.334Z,54.50
2018-07-16T09:35:55.812Z,50.18
2018-07-16T09:41:00.982Z,49.29
2018-07-16T09:43:30.047Z,49.08
2018-07-16T09:45:59.115Z,52.97
2018-07-16T09:48:28.179Z,52.76
2018-07-16T09:50:59.720Z,53.65
2018-07-16T09:53:31.087Z,48.67
2018-07-16T09:56:01.483Z,45.31
2018-07-16T09:58:30.529Z,47.74
2018-07-16T10:00:59.593Z,46.20
2018-07-16T10:03:29.012Z,50.92
2018-07-16T10:05:58.077Z,44.66
2018-07-16T10:08:27.165Z,43.13
2018-07-16T10:11:00.210Z,38.48
2018-07-16T10:13:29.372Z,40.74
2018-07-16T10:15:58.547Z,40.63
2018-07-16T10:18:27.582Z,39.50
2018-07-16T10:20:56.646Z,42.69
2018-07-16T10:23:26.080Z,45.29
2018-07-16T10:25:55.157Z,38.84
2018-07-16T10:28:24.182Z,39.70
2018-07-16T10:30:53.706Z,37.41
2018-07-16T10:33:23.145Z,39.48
2018-07-16T10:35:52.186Z,38.25
2018-07-16T10:40:58.093Z,37.59
2018-07-16T10:43:27.149Z,38.20
2018-07-16T10:45:56.402Z,36.17
2018-07-16T10:48:27.103Z,34.68
2018-07-16T10:50:56.426Z,33.89
2018-07-16T10:53:25.473Z,32.52
2018-07-16T10:55:55.177Z,35.19
2018-07-16T10:58:24.249Z,36.39
2018-07-16T11:00:53.315Z,34.77
2018-07-16T11:03:22.512Z,34.27
2018-07-16T11:05:56.940Z,35.03
2018-07-16T11:08:31.508Z,39.22
2018-07-16T11:11:05.585Z,36.94
2018-07-16T11:13:41.080Z,36.39
2018-07-16T11:16:16.370Z,35.61
2018-07-16T11:21:26.469Z,31.63
2018-07-16T11:24:00.120Z,32.34
2018-07-16T11:29:12.593Z,32.24
2018-07-16T11:31:50.590Z,35.10
2018-07-16T11:37:02.943Z,31.61
2018-07-16T11:39:37.034Z,34.72
2018-07-16T11:42:10.303Z,34.43
2018-07-16T11:44:44.968Z,33.49
2018-07-16T11:47:19.144Z,33.41
2018-07-16T11:49:52.455Z,31.27
2018-07-16T11:55:07.360Z,28.45
2018-07-16T11:57:42.374Z,27.61
2018-07-16T12:00:18.419Z,25.85
2018-07-16T12:05:28.623Z,27.81
2018-07-16T12:08:02.559Z,29.34
2018-07-16T12:10:36.129Z,29.11
2018-07-16T12:13:10.395Z,29.04
2018-07-16T12:18:20.805Z,33.51
2018-07-16T12:20:55.275Z,35.15
2018-07-16T12:23:28.586Z,35.60
2018-07-16T12:26:02.980Z,30.77
2018-07-16T12:28:36.425Z,28.78
2018-07-16T12:31:09.908Z,28.68
2018-07-16T12:36:19.841Z,29.42
2018-07-16T12:38:53.307Z,32.84
2018-07-16T12:43:58.684Z,26.94
2018-07-16T12:46:30.424Z,28.62
2018-07-16T12:48:59.479Z,26.79
2018-07-16T12:54:04.806Z,23.67
2018-07-16T12:56:34.042Z,25.35
2018-07-16T12:59:07.455Z,23.93
2018-07-16T13:01:40.497Z,24.37
2018-07-16T13:04:12.995Z,23.60
2018-07-16T13:06:47.853Z,24.36
2018-07-16T13:09:22.197Z,23.37
2018-07-16T13:14:34.261Z,23.31
2018-07-16T13:17:09.582Z,28.33
2018-07-16T13:19:43.068Z,26.74
2018-07-16T13:24:55.467Z,29.11
2018-07-16T13:27:24.676Z,29.59
2018-07-16T13:29:53.749Z,32.42
2018-07-16T13:32:23.456Z,32.46
2018-07-16T13:34:52.647Z,33.91
2018-07-16T13:37:30.311Z,31.24
2018-07-16T13:42:41.290Z,38.68
2018-07-16T13:45:14.900Z,34.39
2018-07-16T13:47:44.181Z,34.46
2018-07-16T13:50:18.879Z,37.11
2018-07-16T13:52:48.021Z,34.22
2018-07-16T13:57:54.141Z,35.99
2018-07-16T14:02:58.906Z,35.71
2018-07-16T14:05:27.987Z,40.11
2018-07-16T14:08:00.577Z,42.04
2018-07-16T14:10:36.017Z,44.32
2018-07-16T14:13:10.339Z,46.52
2018-07-16T14:15:51.260Z,43.41
2018-07-16T14:18:21.976Z,42.31
2018-07-16T14:23:27.827Z,43.43
2018-07-16T14:25:57.216Z,43.38
2018-07-16T14:28:26.275Z,44.72
2018-07-16T14:33:31.107Z,49.48
2018-07-16T14:38:35.939Z,60.84
2018-07-16T14:41:05.022Z,59.35
2018-07-16T14:43:34.205Z,63.98
2018-07-16T14:48:46.775Z,76.17
2018-07-16T14:51:22.118Z,70.90
2018-07-16T14:53:55.872Z,76.45
2018-07-16T14:59:12.190Z,79.54
2018-07-16T15:01:45.664Z,74.76
2018-07-16T15:04:19.563Z,75.14
2018-07-16T15:06:54.449Z,77.23
2018-07-16T15:09:29.392Z,73.48
2018-07-16T15:12:04.292Z,72.81
2018-07-16T15:17:09.108Z,76.70
2018-07-16T15:19:41.726Z,76.65
2018-07-16T15:24:46.539Z,79.11
2018-07-16T15:27:20.798Z,77.81
2018-07-16T15:29:50.825Z,75.08
2018-07-16T15:32:22.301Z,78.72
2018-07-16T15:37:27.318Z,66.56
2018-07-16T15:42:32.401Z,61.62
2018-07-16T15:45:06.151Z,61.21
2018-07-16T15:47:39.047Z,57.90
2018-07-16T15:50:15.723Z,52.69
2018-07-16T15:52:49.446Z,47.40
2018-07-16T15:58:02.725Z,35.10
2018-07-16T16:00:38.263Z,35.81
2018-07-16T16:03:11.291Z,37.05
2018-07-16T16:08:16.506Z,33.43
2018-07-16T16:10:45.571Z,29.65
2018-07-16T16:13:15.627Z,29.03
2018-07-16T16:15:44.691Z,26.60
2018-07-16T16:18:14.053Z,27.48
2018-07-16T16:20:45.310Z,29.47
2018-07-16T16:23:15.322Z,28.15
2018-07-16T16:25:45.321Z,26.13
2018-07-16T16:28:14.385Z,29.87
2018-07-16T16:30:43.443Z,28.11
2018-07-16T16:35:48.538Z,35.91
2018-07-16T16:38:17.760Z,37.45
2018-07-16T16:40:47.831Z,39.59
2018-07-16T16:43:16.887Z,41.95
2018-07-16T16:45:46.916Z,41.75
2018-07-16T16:48:16.146Z,42.05
2018-07-16T16:50:45.209Z,42.41
2018-07-16T16:53:16.256Z,42.33
2018-07-16T16:55:45.311Z,43.01
2018-07-16T16:58:15.575Z,43.93
2018-07-16T17:00:44.626Z,44.35
2018-07-16T17:03:13.690Z,44.21
2018-07-16T17:05:43.699Z,45.13
2018-07-16T17:08:12.966Z,46.35
2018-07-16T17:10:45.482Z,47.10
2018-07-16T17:13:14.758Z,46.75
2018-07-16T17:15:43.816Z,50.49
2018-07-16T17:18:13.026Z,48.49
2018-07-16T17:20:48.238Z,49.58
2018-07-16T17:23:22.581Z,48.52
2018-07-16T17:25:59.572Z,50.02
2018-07-16T17:28:35.820Z,49.07
2018-07-16T17:31:14.043Z,51.19
2018-07-16T17:33:49.996Z,49.35
2018-07-16T17:36:30.201Z,49.26
2018-07-16T17:39:10.782Z,52.09
2018-07-16T17:41:51.482Z,50.61
2018-07-16T17:49:36.765Z,52.18
2018-07-16T17:52:08.935Z,52.85
2018-07-16T17:54:38.929Z,53.29
2018-07-16T18:02:29.831Z,56.51
2018-07-16T18:05:06.907Z,56.97
2018-07-16T18:07:43.525Z,57.99
2018-07-16T18:10:17.388Z,59.07
2018-07-16T18:15:31.554Z,58.26
2018-07-16T18:18:06.626Z,67.34
2018-07-16T18:20:39.896Z,70.92
2018-07-16T18:23:12.548Z,72.04
2018-07-16T18:25:46.045Z,72.50
2018-07-16T18:28:15.111Z,74.63
2018-07-16T18:30:50.179Z,75.03
2018-07-16T18:33:19.583Z,73.93
2018-07-16T18:35:54.650Z,74.42
2018-07-16T18:38:23.671Z,75.03
2018-07-16T18:40:53.898Z,75.95
2018-07-16T18:43:23.124Z,76.06
2018-07-16T18:48:27.978Z,77.38
2018-07-16T18:51:01.054Z,74.46
2018-07-16T18:53:32.102Z,73.71
2018-07-16T18:58:39.784Z,76.19
2018-07-16T19:03:44.834Z,71.99
2018-07-16T19:06:13.896Z,71.59
2018-07-16T19:08:42.992Z,72.40
2018-07-16T19:11:13.026Z,73.88
2018-07-16T19:13:45.289Z,74.03
2018-07-16T19:16:15.275Z,73.09
2018-07-16T19:18:44.474Z,78.48
2018-07-16T19:21:14.503Z,82.85
2018-07-16T19:23:43.547Z,81.55
2018-07-16T19:26:12.599Z,82.69
2018-07-16T19:28:41.712Z,77.53
2018-07-16T19:31:10.745Z,76.38
2018-07-16T19:33:39.785Z,75.15
2018-07-16T19:36:08.834Z,80.91
2018-07-16T19:38:38.922Z,79.07
2018-07-16T19:41:07.973Z,83.62
2018-07-16T19:43:37.066Z,81.61
2018-07-16T19:46:06.103Z,80.72
2018-07-16T19:48:37.152Z,79.77
2018-07-16T19:51:07.197Z,86.09
2018-07-16T19:53:39.246Z,82.01
2018-07-16T19:56:08.299Z,86.08
2018-07-16T19:58:37.353Z,87.36
2018-07-16T20:01:08.371Z,88.76
2018-07-16T20:06:13.156Z,83.72
2018-07-16T20:13:53.881Z,88.06
2018-07-16T20:16:22.969Z,88.50
2018-07-16T20:18:54.001Z,89.17
2018-07-16T20:21:23.055Z,89.32
2018-07-16T20:23:52.091Z,90.00
2018-07-16T20:26:21.141Z,91.81
2018-07-16T20:28:52.128Z,88.29
2018-07-16T20:31:22.148Z,85.62
2018-07-16T20:33:51.197Z,91.45
2018-07-16T20:36:20.261Z,89.16
2018-07-16T20:41:25.212Z,89.68
2018-07-16T20:43:56.250Z,89.19
2018-07-16T20:46:26.252Z,90.50
2018-07-16T20:48:55.331Z,90.57
2018-07-16T20:51:24.411Z,90.70
2018-07-16T20:53:53.459Z,88.68
2018-07-16T20:56:24.524Z,85.27
2018-07-16T21:01:29.451Z,83.91
2018-07-16T21:03:59.479Z,86.79
2018-07-16T21:06:28.543Z,85.88
2018-07-16T21:08:57.604Z,86.48
2018-07-16T21:14:02.442Z,89.78
2018-07-16T21:16:32.448Z,91.73
2018-07-16T21:19:05.444Z,90.37
2018-07-16T21:21:34.498Z,93.09
2018-07-16T21:24:03.549Z,90.56
2018-07-16T21:26:33.549Z,91.35
2018-07-16T21:29:02.613Z,93.19
2018-07-16T21:31:31.654Z,95.42
2018-07-16T21:34:01.665Z,98.13
2018-07-16T21:39:06.439Z,94.69
2018-07-16T21:41:42.661Z,96.38
2018-07-16T21:44:11.719Z,96.96
2018-07-16T21:46:40.779Z,95.72
2018-07-16T21:54:21.406Z,93.94
2018-07-16T21:56:50.459Z,91.72
2018-07-16T21:59:19.514Z,93.95
2018-07-16T22:04:24.382Z,92.23
2018-07-16T22:06:53.419Z,91.03
2018-07-16T22:09:22.483Z,92.20
2018-07-16T22:11:51.521Z,92.77
2018-07-16T22:16:57.210Z,94.56
2018-07-16T22:19:27.220Z,96.39
2018-07-16T22:24:31.989Z,93.71
2018-07-16T22:27:01.059Z,94.13
2018-07-16T22:34:45.047Z,91.44
2018-07-16T22:39:50.905Z,92.59
2018-07-16T22:42:21.983Z,91.67
2018-07-16T22:44:53.001Z,94.32
2018-07-16T22:55:12.386Z,96.06
2018-07-16T22:57:44.209Z,95.17
2018-07-16T23:00:13.258Z,97.30
2018-07-16T23:02:42.311Z,98.20
2018-07-16T23:07:47.177Z,95.71
2018-07-16T23:10:16.225Z,99.11
2018-07-16T23:12:45.281Z,97.22
2018-07-16T23:15:14.391Z,97.29
2018-07-16T23:17:43.630Z,99.15
2018-07-16T23:20:14.695Z,99.91
2018-07-16T23:22:45.765Z,99.28
2018-07-16T23:27:50.618Z,100.00
2018-07-16T23:30:20.665Z,100.00
2018-07-16T23:32:49.757Z,99.34
2018-07-16T23:35:19.765Z,99.70
2018-07-16T23:37:53.126Z,100.00
2018-07-16T23:40:28.001Z,100.00
2018-07-16T23:42:57.117Z,99.77
2018-07-16T23:45:26.187Z,100.00
2018-07-16T23:50:31.049Z,100.00
2018-07-16T23:53:00.110Z,100.00
2018-07-16T23:58:04.897Z,100.00
